sensor_id;sensor_type;location;lat;lon;timestamp;P1;durP1;ratioP1;P2;durP2;ratioP2
3959;SDS011;1994;48.640;8.894;2022-09-11T00:01:27;1.90;;;1.20;;
3959;SDS011;1994;48.640;8.894;2022-09-11T00:03:55;2.67;;;2.10;;
3959;SDS011;1994;48.640;8.894;2022-09-11T00:06:21;3.03;;;1.80;;
3959;SDS011;1994;48.640;8.894;2022-09-11T00:08:51;5.03;;;1.87;;
3959;SDS011;1994;48.640;8.894;2022-09-11T00:11:20;4.60;;;1.80;;
3959;SDS011;1994;48.640;8.894;2022-09-11T00:13:48;2.30;;;2.10;;
3959;SDS011;1994;48.640;8.894;2022-09-11T00:18:54;1.97;;;1.70;;
3959;SDS011;1994;48.640;8.894;2022-09-11T00:21:22;3.37;;;1.97;;
3959;SDS011;1994;48.640;8.894;2022-09-11T00:23:49;2.23;;;1.93;;
3959;SDS011;1994;48.640;8.894;2022-09-11T00:26:15;4.47;;;1.97;;
3959;SDS011;1994;48.640;8.894;2022-09-11T00:28:45;4.47;;;1.60;;
3959;SDS011;1994;48.640;8.894;2022-09-11T00:31:17;3.07;;;1.90;;
3959;SDS011;1994;48.640;8.894;2022-09-11T00:33:48;1.83;;;1.70;;
3959;SDS011;1994;48.640;8.894;2022-09-11T00:36:17;2.00;;;1.80;;
3959;SDS011;1994;48.640;8.894;2022-09-11T00:38:49;4.57;;;1.73;;
3959;SDS011;1994;48.640;8.894;2022-09-11T00:41:17;2.30;;;1.83;;
3959;SDS011;1994;48.640;8.894;2022-09-11T00:43:51;4.20;;;2.00;;
3959;SDS011;1994;48.640;8.894;2022-09-11T00:47:06;2.60;;;1.87;;
3959;SDS011;1994;48.640;8.894;2022-09-11T00:52:09;2.90;;;2.00;;
3959;SDS011;1994;48.640;8.894;2022-09-11T00:54:41;2.70;;;2.10;;
3959;SDS011;1994;48.640;8.894;2022-09-11T00:57:23;5.20;;;2.10;;
3959;SDS011;1994;48.640;8.894;2022-09-11T00:59:54;2.27;;;2.07;;
3959;SDS011;1994;48.640;8.894;2022-09-11T01:02:23;3.60;;;1.67;;
3959;SDS011;1994;48.640;8.894;2022-09-11T01:05:00;2.27;;;1.80;;
3959;SDS011;1994;48.640;8.894;2022-09-11T01:07:30;6.93;;;2.63;;
3959;SDS011;1994;48.640;8.894;2022-09-11T01:09:58;5.03;;;2.37;;
3959;SDS011;1994;48.640;8.894;2022-09-11T01:12:27;1.87;;;1.73;;
3959;SDS011;1994;48.640;8.894;2022-09-11T01:18:37;2.40;;;2.13;;
3959;SDS011;1994;48.640;8.894;2022-09-11T01:24:13;3.50;;;3.20;;
3959;SDS011;1994;48.640;8.894;2022-09-11T01:30:06;4.23;;;2.20;;
3959;SDS011;1994;48.640;8.894;2022-09-11T01:32:43;3.27;;;2.07;;
3959;SDS011;1994;48.640;8.894;2022-09-11T01:35:41;1.90;;;1.80;;
3959;SDS011;1994;48.640;8.894;2022-09-11T01:41:11;2.27;;;2.00;;
3959;SDS011;1994;48.640;8.894;2022-09-11T01:46:45;2.83;;;1.70;;
3959;SDS011;1994;48.640;8.894;2022-09-11T01:51:59;7.10;;;2.43;;
3959;SDS011;1994;48.640;8.894;2022-09-11T01:54:33;2.83;;;1.90;;
3959;SDS011;1994;48.640;8.894;2022-09-11T01:57:13;2.43;;;2.23;;
3959;SDS011;1994;48.640;8.894;2022-09-11T02:00:06;2.23;;;2.03;;
3959;SDS011;1994;48.640;8.894;2022-09-11T02:02:37;8.60;;;3.73;;
3959;SDS011;1994;48.640;8.894;2022-09-11T02:08:26;3.37;;;2.30;;
3959;SDS011;1994;48.640;8.894;2022-09-11T02:11:06;3.43;;;3.03;;
3959;SDS011;1994;48.640;8.894;2022-09-11T02:13:38;3.10;;;2.73;;
3959;SDS011;1994;48.640;8.894;2022-09-11T02:19:24;3.23;;;2.53;;
3959;SDS011;1994;48.640;8.894;2022-09-11T02:21:53;2.83;;;2.40;;
3959;SDS011;1994;48.640;8.894;2022-09-11T02:24:21;4.40;;;2.90;;
3959;SDS011;1994;48.640;8.894;2022-09-11T02:26:48;3.13;;;2.83;;
3959;SDS011;1994;48.640;8.894;2022-09-11T02:29:19;4.03;;;2.70;;
3959;SDS011;1994;48.640;8.894;2022-09-11T02:31:45;2.73;;;2.33;;
3959;SDS011;1994;48.640;8.894;2022-09-11T02:34:12;8.83;;;3.27;;
3959;SDS011;1994;48.640;8.894;2022-09-11T02:49:06;4.33;;;2.53;;
3959;SDS011;1994;48.640;8.894;2022-09-11T02:58:11;4.17;;;2.60;;
3959;SDS011;1994;48.640;8.894;2022-09-11T03:00:41;4.40;;;2.40;;
3959;SDS011;1994;48.640;8.894;2022-09-11T03:03:11;3.03;;;2.83;;
3959;SDS011;1994;48.640;8.894;2022-09-11T03:05:38;7.03;;;3.00;;
3959;SDS011;1994;48.640;8.894;2022-09-11T03:08:04;3.87;;;2.70;;
3959;SDS011;1994;48.640;8.894;2022-09-11T03:10:31;3.60;;;3.30;;
3959;SDS011;1994;48.640;8.894;2022-09-11T03:12:58;9.67;;;3.30;;
3959;SDS011;1994;48.640;8.894;2022-09-11T03:15:24;3.83;;;3.27;;
3959;SDS011;1994;48.640;8.894;2022-09-11T03:17:51;3.33;;;2.60;;
3959;SDS011;1994;48.640;8.894;2022-09-11T03:20:17;5.97;;;3.30;;
3959;SDS011;1994;48.640;8.894;2022-09-11T03:22:44;3.90;;;2.93;;
3959;SDS011;1994;48.640;8.894;2022-09-11T03:25:09;5.70;;;2.97;;
3959;SDS011;1994;48.640;8.894;2022-09-11T03:27:39;4.60;;;2.73;;
3959;SDS011;1994;48.640;8.894;2022-09-11T03:30:06;3.37;;;3.07;;
3959;SDS011;1994;48.640;8.894;2022-09-11T03:32:33;5.27;;;2.90;;
3959;SDS011;1994;48.640;8.894;2022-09-11T03:34:58;3.83;;;2.90;;
3959;SDS011;1994;48.640;8.894;2022-09-11T03:37:25;3.13;;;2.83;;
3959;SDS011;1994;48.640;8.894;2022-09-11T03:39:51;6.93;;;2.97;;
3959;SDS011;1994;48.640;8.894;2022-09-11T03:42:18;3.23;;;2.93;;
3959;SDS011;1994;48.640;8.894;2022-09-11T03:44:45;5.80;;;3.30;;
3959;SDS011;1994;48.640;8.894;2022-09-11T03:47:11;3.97;;;3.50;;
3959;SDS011;1994;48.640;8.894;2022-09-11T03:49:37;3.30;;;2.60;;
3959;SDS011;1994;48.640;8.894;2022-09-11T03:52:03;3.53;;;3.23;;
3959;SDS011;1994;48.640;8.894;2022-09-11T03:54:32;4.33;;;3.40;;
3959;SDS011;1994;48.640;8.894;2022-09-11T03:56:58;3.40;;;2.87;;
3959;SDS011;1994;48.640;8.894;2022-09-11T03:59:24;4.13;;;2.70;;
3959;SDS011;1994;48.640;8.894;2022-09-11T04:01:53;2.70;;;2.50;;
3959;SDS011;1994;48.640;8.894;2022-09-11T04:04:21;4.03;;;2.80;;
3959;SDS011;1994;48.640;8.894;2022-09-11T04:06:47;3.03;;;2.73;;
3959;SDS011;1994;48.640;8.894;2022-09-11T04:09:12;3.20;;;2.80;;
3959;SDS011;1994;48.640;8.894;2022-09-11T04:11:39;3.20;;;2.87;;
3959;SDS011;1994;48.640;8.894;2022-09-11T04:14:05;2.70;;;2.50;;
3959;SDS011;1994;48.640;8.894;2022-09-11T04:16:31;3.10;;;2.90;;
3959;SDS011;1994;48.640;8.894;2022-09-11T04:19:01;2.83;;;2.63;;
3959;SDS011;1994;48.640;8.894;2022-09-11T04:21:27;3.33;;;2.70;;
3959;SDS011;1994;48.640;8.894;2022-09-11T04:23:53;5.13;;;2.90;;
3959;SDS011;1994;48.640;8.894;2022-09-11T04:26:21;3.27;;;2.40;;
3959;SDS011;1994;48.640;8.894;2022-09-11T04:28:49;2.57;;;2.37;;
3959;SDS011;1994;48.640;8.894;2022-09-11T04:31:15;5.63;;;3.50;;
3959;SDS011;1994;48.640;8.894;2022-09-11T04:33:42;4.83;;;2.83;;
3959;SDS011;1994;48.640;8.894;2022-09-11T04:36:10;4.37;;;3.67;;
3959;SDS011;1994;48.640;8.894;2022-09-11T04:38:39;8.03;;;3.50;;
3959;SDS011;1994;48.640;8.894;2022-09-11T04:41:05;4.63;;;3.37;;
3959;SDS011;1994;48.640;8.894;2022-09-11T04:43:33;4.40;;;4.00;;
3959;SDS011;1994;48.640;8.894;2022-09-11T04:46:01;5.00;;;4.10;;
3959;SDS011;1994;48.640;8.894;2022-09-11T04:48:28;7.97;;;4.00;;
3959;SDS011;1994;48.640;8.894;2022-09-11T04:51:02;3.13;;;2.80;;
3959;SDS011;1994;48.640;8.894;2022-09-11T04:53:30;4.23;;;3.53;;
3959;SDS011;1994;48.640;8.894;2022-09-11T04:56:01;4.37;;;3.37;;
3959;SDS011;1994;48.640;8.894;2022-09-11T04:58:39;6.50;;;4.23;;
3959;SDS011;1994;48.640;8.894;2022-09-11T05:01:07;6.07;;;4.00;;
3959;SDS011;1994;48.640;8.894;2022-09-11T05:03:38;4.47;;;3.40;;
3959;SDS011;1994;48.640;8.894;2022-09-11T05:06:05;5.17;;;4.13;;
3959;SDS011;1994;48.640;8.894;2022-09-11T05:08:36;5.30;;;4.60;;
3959;SDS011;1994;48.640;8.894;2022-09-11T05:11:02;3.87;;;3.47;;
3959;SDS011;1994;48.640;8.894;2022-09-11T05:13:31;7.70;;;4.20;;
3959;SDS011;1994;48.640;8.894;2022-09-11T05:16:04;7.30;;;4.10;;
3959;SDS011;1994;48.640;8.894;2022-09-11T05:18:39;7.40;;;3.80;;
3959;SDS011;1994;48.640;8.894;2022-09-11T05:21:16;9.43;;;3.57;;
3959;SDS011;1994;48.640;8.894;2022-09-11T05:23:53;3.53;;;2.83;;
3959;SDS011;1994;48.640;8.894;2022-09-11T05:26:24;3.10;;;2.80;;
3959;SDS011;1994;48.640;8.894;2022-09-11T05:28:59;7.53;;;3.10;;
3959;SDS011;1994;48.640;8.894;2022-09-11T05:31:47;3.70;;;3.00;;
3959;SDS011;1994;48.640;8.894;2022-09-11T05:34:13;6.23;;;3.77;;
3959;SDS011;1994;48.640;8.894;2022-09-11T05:36:39;5.50;;;3.90;;
3959;SDS011;1994;48.640;8.894;2022-09-11T05:39:05;3.60;;;3.30;;
3959;SDS011;1994;48.640;8.894;2022-09-11T05:41:34;3.90;;;3.27;;
3959;SDS011;1994;48.640;8.894;2022-09-11T05:44:00;7.30;;;4.37;;
3959;SDS011;1994;48.640;8.894;2022-09-11T05:46:26;5.07;;;4.20;;
3959;SDS011;1994;48.640;8.894;2022-09-11T05:48:52;6.43;;;3.97;;
3959;SDS011;1994;48.640;8.894;2022-09-11T05:51:36;8.83;;;5.00;;
3959;SDS011;1994;48.640;8.894;2022-09-11T05:54:03;9.17;;;5.87;;
3959;SDS011;1994;48.640;8.894;2022-09-11T05:56:29;5.40;;;4.90;;
3959;SDS011;1994;48.640;8.894;2022-09-11T05:58:55;6.33;;;4.70;;
3959;SDS011;1994;48.640;8.894;2022-09-11T06:01:23;6.80;;;4.40;;
3959;SDS011;1994;48.640;8.894;2022-09-11T06:03:51;7.63;;;5.60;;
3959;SDS011;1994;48.640;8.894;2022-09-11T06:06:18;7.87;;;5.80;;
3959;SDS011;1994;48.640;8.894;2022-09-11T06:08:46;5.60;;;4.53;;
3959;SDS011;1994;48.640;8.894;2022-09-11T06:11:14;5.90;;;5.10;;
3959;SDS011;1994;48.640;8.894;2022-09-11T06:13:42;7.97;;;5.40;;
3959;SDS011;1994;48.640;8.894;2022-09-11T06:16:14;5.57;;;5.00;;
3959;SDS011;1994;48.640;8.894;2022-09-11T06:18:45;8.43;;;4.90;;
3959;SDS011;1994;48.640;8.894;2022-09-11T06:21:15;9.00;;;5.63;;
3959;SDS011;1994;48.640;8.894;2022-09-11T06:23:44;9.07;;;5.90;;
3959;SDS011;1994;48.640;8.894;2022-09-11T06:26:11;7.20;;;6.30;;
3959;SDS011;1994;48.640;8.894;2022-09-11T06:28:39;8.43;;;5.43;;
3959;SDS011;1994;48.640;8.894;2022-09-11T06:31:06;7.93;;;5.63;;
3959;SDS011;1994;48.640;8.894;2022-09-11T06:33:36;8.10;;;6.30;;
3959;SDS011;1994;48.640;8.894;2022-09-11T06:36:05;10.00;;;6.37;;
3959;SDS011;1994;48.640;8.894;2022-09-11T06:38:34;9.87;;;5.07;;
3959;SDS011;1994;48.640;8.894;2022-09-11T06:41:01;7.47;;;5.70;;
3959;SDS011;1994;48.640;8.894;2022-09-11T06:43:29;8.40;;;6.40;;
3959;SDS011;1994;48.640;8.894;2022-09-11T06:46:02;9.17;;;6.53;;
3959;SDS011;1994;48.640;8.894;2022-09-11T06:48:32;12.60;;;7.43;;
3959;SDS011;1994;48.640;8.894;2022-09-11T06:51:01;8.23;;;5.53;;
3959;SDS011;1994;48.640;8.894;2022-09-11T06:53:28;6.47;;;5.87;;
3959;SDS011;1994;48.640;8.894;2022-09-11T06:55:58;10.77;;;5.97;;
3959;SDS011;1994;48.640;8.894;2022-09-11T06:58:25;7.10;;;5.87;;
3959;SDS011;1994;48.640;8.894;2022-09-11T07:00:51;7.30;;;5.80;;
3959;SDS011;1994;48.640;8.894;2022-09-11T07:03:17;10.73;;;6.40;;
3959;SDS011;1994;48.640;8.894;2022-09-11T07:05:46;11.97;;;6.50;;
3959;SDS011;1994;48.640;8.894;2022-09-11T07:08:12;11.03;;;6.20;;
3959;SDS011;1994;48.640;8.894;2022-09-11T07:10:38;10.43;;;6.97;;
3959;SDS011;1994;48.640;8.894;2022-09-11T07:13:03;7.73;;;6.30;;
3959;SDS011;1994;48.640;8.894;2022-09-11T07:15:29;7.83;;;6.20;;
3959;SDS011;1994;48.640;8.894;2022-09-11T07:17:56;7.53;;;6.00;;
3959;SDS011;1994;48.640;8.894;2022-09-11T07:20:22;8.17;;;6.67;;
3959;SDS011;1994;48.640;8.894;2022-09-11T07:22:48;7.70;;;5.33;;
3959;SDS011;1994;48.640;8.894;2022-09-11T07:25:14;10.80;;;6.30;;
3959;SDS011;1994;48.640;8.894;2022-09-11T07:27:40;7.17;;;5.93;;
3959;SDS011;1994;48.640;8.894;2022-09-11T07:30:06;8.37;;;5.33;;
3959;SDS011;1994;48.640;8.894;2022-09-11T07:32:32;7.47;;;6.30;;
3959;SDS011;1994;48.640;8.894;2022-09-11T07:34:58;6.83;;;5.00;;
3959;SDS011;1994;48.640;8.894;2022-09-11T07:37:29;11.43;;;6.80;;
3959;SDS011;1994;48.640;8.894;2022-09-11T07:39:55;12.03;;;6.50;;
3959;SDS011;1994;48.640;8.894;2022-09-11T07:42:21;9.70;;;6.20;;
3959;SDS011;1994;48.640;8.894;2022-09-11T07:44:46;9.77;;;6.07;;
3959;SDS011;1994;48.640;8.894;2022-09-11T07:47:12;9.07;;;6.60;;
3959;SDS011;1994;48.640;8.894;2022-09-11T07:49:38;6.53;;;5.83;;
3959;SDS011;1994;48.640;8.894;2022-09-11T07:52:04;7.60;;;5.93;;
3959;SDS011;1994;48.640;8.894;2022-09-11T07:54:30;10.70;;;7.43;;
3959;SDS011;1994;48.640;8.894;2022-09-11T07:56:56;10.53;;;7.10;;
3959;SDS011;1994;48.640;8.894;2022-09-11T07:59:25;8.57;;;6.73;;
3959;SDS011;1994;48.640;8.894;2022-09-11T08:01:51;10.70;;;7.80;;
3959;SDS011;1994;48.640;8.894;2022-09-11T08:04:19;10.27;;;7.70;;
3959;SDS011;1994;48.640;8.894;2022-09-11T08:06:45;8.23;;;6.77;;
3959;SDS011;1994;48.640;8.894;2022-09-11T08:09:12;9.70;;;6.00;;
3959;SDS011;1994;48.640;8.894;2022-09-11T08:11:42;7.87;;;6.33;;
3959;SDS011;1994;48.640;8.894;2022-09-11T08:14:12;8.03;;;6.90;;
3959;SDS011;1994;48.640;8.894;2022-09-11T08:16:39;8.37;;;6.47;;
3959;SDS011;1994;48.640;8.894;2022-09-11T08:19:05;9.00;;;6.40;;
3959;SDS011;1994;48.640;8.894;2022-09-11T08:21:32;8.63;;;6.17;;
3959;SDS011;1994;48.640;8.894;2022-09-11T08:23:58;8.80;;;6.20;;
3959;SDS011;1994;48.640;8.894;2022-09-11T08:26:25;12.33;;;7.00;;
3959;SDS011;1994;48.640;8.894;2022-09-11T08:28:55;7.87;;;5.57;;
3959;SDS011;1994;48.640;8.894;2022-09-11T08:31:23;11.33;;;6.50;;
3959;SDS011;1994;48.640;8.894;2022-09-11T08:33:50;8.20;;;6.20;;
3959;SDS011;1994;48.640;8.894;2022-09-11T08:36:17;8.30;;;6.10;;
3959;SDS011;1994;48.640;8.894;2022-09-11T08:38:44;12.57;;;5.80;;
3959;SDS011;1994;48.640;8.894;2022-09-11T08:43:55;7.87;;;5.43;;
3959;SDS011;1994;48.640;8.894;2022-09-11T08:47:09;8.43;;;5.90;;
3959;SDS011;1994;48.640;8.894;2022-09-11T08:49:39;5.67;;;4.80;;
3959;SDS011;1994;48.640;8.894;2022-09-11T08:52:08;9.60;;;5.40;;
3959;SDS011;1994;48.640;8.894;2022-09-11T08:54:39;6.40;;;5.30;;
3959;SDS011;1994;48.640;8.894;2022-09-11T09:00:02;9.03;;;6.00;;
3959;SDS011;1994;48.640;8.894;2022-09-11T09:08:17;6.57;;;5.40;;
3959;SDS011;1994;48.640;8.894;2022-09-11T09:11:08;6.50;;;5.27;;
3959;SDS011;1994;48.640;8.894;2022-09-11T09:16:59;5.60;;;4.80;;
3959;SDS011;1994;48.640;8.894;2022-09-11T09:19:46;5.20;;;4.70;;
3959;SDS011;1994;48.640;8.894;2022-09-11T09:22:23;6.90;;;4.90;;
3959;SDS011;1994;48.640;8.894;2022-09-11T09:25:03;5.93;;;4.90;;
3959;SDS011;1994;48.640;8.894;2022-09-11T09:30:43;6.30;;;5.40;;
3959;SDS011;1994;48.640;8.894;2022-09-11T09:33:33;8.97;;;5.50;;
3959;SDS011;1994;48.640;8.894;2022-09-11T09:39:14;5.63;;;5.00;;
3959;SDS011;1994;48.640;8.894;2022-09-11T09:45:04;6.50;;;5.90;;
3959;SDS011;1994;48.640;8.894;2022-09-11T09:48:03;5.97;;;5.27;;
3959;SDS011;1994;48.640;8.894;2022-09-11T09:50:31;6.43;;;5.70;;
3959;SDS011;1994;48.640;8.894;2022-09-11T09:53:07;7.13;;;5.70;;
3959;SDS011;1994;48.640;8.894;2022-09-11T09:56:04;10.93;;;5.90;;
3959;SDS011;1994;48.640;8.894;2022-09-11T09:58:35;6.80;;;5.73;;
3959;SDS011;1994;48.640;8.894;2022-09-11T10:04:19;10.50;;;6.97;;
3959;SDS011;1994;48.640;8.894;2022-09-11T10:06:49;7.30;;;5.83;;
3959;SDS011;1994;48.640;8.894;2022-09-11T10:09:24;5.40;;;4.70;;
3959;SDS011;1994;48.640;8.894;2022-09-11T10:11:54;7.93;;;5.50;;
3959;SDS011;1994;48.640;8.894;2022-09-11T10:14:27;6.07;;;4.63;;
3959;SDS011;1994;48.640;8.894;2022-09-11T10:17:00;7.70;;;5.53;;
3959;SDS011;1994;48.640;8.894;2022-09-11T10:19:40;12.90;;;7.03;;
3959;SDS011;1994;48.640;8.894;2022-09-11T10:22:19;7.83;;;5.13;;
3959;SDS011;1994;48.640;8.894;2022-09-11T10:28:02;6.33;;;4.90;;
3959;SDS011;1994;48.640;8.894;2022-09-11T10:30:39;4.93;;;4.43;;
3959;SDS011;1994;48.640;8.894;2022-09-11T10:33:26;5.70;;;5.00;;
3959;SDS011;1994;48.640;8.894;2022-09-11T10:36:04;5.23;;;4.73;;
3959;SDS011;1994;48.640;8.894;2022-09-11T10:38:33;4.30;;;4.00;;
3959;SDS011;1994;48.640;8.894;2022-09-11T10:43:45;4.30;;;3.80;;
3959;SDS011;1994;48.640;8.894;2022-09-11T10:48:42;4.83;;;4.43;;
3959;SDS011;1994;48.640;8.894;2022-09-11T10:51:21;4.87;;;4.37;;
3959;SDS011;1994;48.640;8.894;2022-09-11T11:03:09;5.60;;;5.03;;
3959;SDS011;1994;48.640;8.894;2022-09-11T11:18:09;4.77;;;4.20;;
3959;SDS011;1994;48.640;8.894;2022-09-11T11:36:01;4.23;;;3.83;;
3959;SDS011;1994;48.640;8.894;2022-09-11T11:38:35;5.37;;;3.90;;
3959;SDS011;1994;48.640;8.894;2022-09-11T11:43:50;4.03;;;3.70;;
3959;SDS011;1994;48.640;8.894;2022-09-11T11:46:18;6.60;;;4.40;;
3959;SDS011;1994;48.640;8.894;2022-09-11T11:51:37;4.90;;;4.50;;
3959;SDS011;1994;48.640;8.894;2022-09-11T11:54:18;4.17;;;3.60;;
3959;SDS011;1994;48.640;8.894;2022-09-11T11:57:13;4.40;;;4.00;;
3959;SDS011;1994;48.640;8.894;2022-09-11T12:00:14;4.17;;;3.77;;
3959;SDS011;1994;48.640;8.894;2022-09-11T12:02:47;10.93;;;5.10;;
3959;SDS011;1994;48.640;8.894;2022-09-11T12:05:51;4.43;;;4.03;;
3959;SDS011;1994;48.640;8.894;2022-09-11T12:08:16;4.60;;;4.20;;
3959;SDS011;1994;48.640;8.894;2022-09-11T12:10:51;5.50;;;4.47;;
3959;SDS011;1994;48.640;8.894;2022-09-11T12:13:31;5.47;;;4.00;;
3959;SDS011;1994;48.640;8.894;2022-09-11T12:18:59;5.00;;;3.77;;
3959;SDS011;1994;48.640;8.894;2022-09-11T12:24:48;5.27;;;4.77;;
3959;SDS011;1994;48.640;8.894;2022-09-11T12:30:08;4.00;;;3.67;;
3959;SDS011;1994;48.640;8.894;2022-09-11T12:32:47;4.50;;;3.67;;
3959;SDS011;1994;48.640;8.894;2022-09-11T12:35:20;4.90;;;4.40;;
3959;SDS011;1994;48.640;8.894;2022-09-11T12:40:39;4.37;;;3.97;;
3959;SDS011;1994;48.640;8.894;2022-09-11T12:43:54;4.63;;;4.10;;
3959;SDS011;1994;48.640;8.894;2022-09-11T12:48:56;5.87;;;4.33;;
3959;SDS011;1994;48.640;8.894;2022-09-11T12:51:31;7.77;;;4.80;;
3959;SDS011;1994;48.640;8.894;2022-09-11T12:54:23;4.40;;;3.60;;
3959;SDS011;1994;48.640;8.894;2022-09-11T12:57:05;5.00;;;4.20;;
3959;SDS011;1994;48.640;8.894;2022-09-11T12:59:40;4.70;;;4.30;;
3959;SDS011;1994;48.640;8.894;2022-09-11T13:02:43;7.43;;;4.13;;
3959;SDS011;1994;48.640;8.894;2022-09-11T13:05:17;4.83;;;4.37;;
3959;SDS011;1994;48.640;8.894;2022-09-11T13:07:58;5.23;;;4.30;;
3959;SDS011;1994;48.640;8.894;2022-09-11T13:10:52;6.33;;;4.13;;
3959;SDS011;1994;48.640;8.894;2022-09-11T13:13:40;5.57;;;4.30;;
3959;SDS011;1994;48.640;8.894;2022-09-11T13:16:24;4.60;;;4.20;;
3959;SDS011;1994;48.640;8.894;2022-09-11T13:18:59;5.50;;;4.37;;
3959;SDS011;1994;48.640;8.894;2022-09-11T13:21:34;4.13;;;3.80;;
3959;SDS011;1994;48.640;8.894;2022-09-11T13:24:02;4.07;;;3.67;;
3959;SDS011;1994;48.640;8.894;2022-09-11T13:27:02;6.97;;;3.60;;
3959;SDS011;1994;48.640;8.894;2022-09-11T13:29:40;4.60;;;3.83;;
3959;SDS011;1994;48.640;8.894;2022-09-11T13:32:08;4.53;;;3.60;;
3959;SDS011;1994;48.640;8.894;2022-09-11T13:34:41;4.50;;;4.10;;
3959;SDS011;1994;48.640;8.894;2022-09-11T13:37:11;4.10;;;3.70;;
3959;SDS011;1994;48.640;8.894;2022-09-11T13:39:55;5.40;;;4.17;;
3959;SDS011;1994;48.640;8.894;2022-09-11T13:42:24;11.37;;;3.70;;
3959;SDS011;1994;48.640;8.894;2022-09-11T13:44:57;3.77;;;3.40;;
3959;SDS011;1994;48.640;8.894;2022-09-11T13:47:25;4.33;;;3.53;;
3959;SDS011;1994;48.640;8.894;2022-09-11T13:49:54;4.50;;;4.10;;
3959;SDS011;1994;48.640;8.894;2022-09-11T13:52:24;4.80;;;4.07;;
3959;SDS011;1994;48.640;8.894;2022-09-11T13:54:56;5.80;;;3.90;;
3959;SDS011;1994;48.640;8.894;2022-09-11T13:57:32;5.30;;;4.33;;
3959;SDS011;1994;48.640;8.894;2022-09-11T13:59:58;4.07;;;3.73;;
3959;SDS011;1994;48.640;8.894;2022-09-11T14:05:16;4.20;;;3.83;;
3959;SDS011;1994;48.640;8.894;2022-09-11T14:13:15;5.73;;;5.23;;
3959;SDS011;1994;48.640;8.894;2022-09-11T14:16:02;4.70;;;4.30;;
3959;SDS011;1994;48.640;8.894;2022-09-11T14:18:33;4.90;;;4.50;;
3959;SDS011;1994;48.640;8.894;2022-09-11T14:21:17;6.07;;;5.00;;
3959;SDS011;1994;48.640;8.894;2022-09-11T14:23:57;4.83;;;4.33;;
3959;SDS011;1994;48.640;8.894;2022-09-11T14:31:37;7.30;;;4.93;;
3959;SDS011;1994;48.640;8.894;2022-09-11T14:34:24;6.60;;;5.07;;
3959;SDS011;1994;48.640;8.894;2022-09-11T14:37:12;5.57;;;4.80;;
3959;SDS011;1994;48.640;8.894;2022-09-11T14:39:47;6.70;;;4.50;;
3959;SDS011;1994;48.640;8.894;2022-09-11T14:42:21;4.93;;;4.37;;
3959;SDS011;1994;48.640;8.894;2022-09-11T14:44:51;5.27;;;4.80;;
3959;SDS011;1994;48.640;8.894;2022-09-11T14:47:38;7.93;;;4.53;;
3959;SDS011;1994;48.640;8.894;2022-09-11T14:50:06;6.60;;;4.63;;
3959;SDS011;1994;48.640;8.894;2022-09-11T14:52:37;4.90;;;4.40;;
3959;SDS011;1994;48.640;8.894;2022-09-11T14:55:04;8.67;;;5.40;;
3959;SDS011;1994;48.640;8.894;2022-09-11T14:57:32;5.33;;;4.10;;
3959;SDS011;1994;48.640;8.894;2022-09-11T14:59:59;4.63;;;4.20;;
3959;SDS011;1994;48.640;8.894;2022-09-11T15:02:25;4.50;;;4.10;;
3959;SDS011;1994;48.640;8.894;2022-09-11T15:04:54;14.00;;;4.57;;
3959;SDS011;1994;48.640;8.894;2022-09-11T15:07:21;7.37;;;4.03;;
3959;SDS011;1994;48.640;8.894;2022-09-11T15:09:57;6.30;;;5.00;;
3959;SDS011;1994;48.640;8.894;2022-09-11T15:12:23;7.03;;;6.20;;
3959;SDS011;1994;48.640;8.894;2022-09-11T15:14:49;5.63;;;5.07;;
3959;SDS011;1994;48.640;8.894;2022-09-11T15:17:15;6.87;;;5.27;;
3959;SDS011;1994;48.640;8.894;2022-09-11T15:19:43;10.90;;;5.27;;
3959;SDS011;1994;48.640;8.894;2022-09-11T15:22:13;9.80;;;5.33;;
3959;SDS011;1994;48.640;8.894;2022-09-11T15:24:42;8.23;;;5.70;;
3959;SDS011;1994;48.640;8.894;2022-09-11T15:27:08;5.83;;;5.23;;
3959;SDS011;1994;48.640;8.894;2022-09-11T15:29:36;5.50;;;4.40;;
3959;SDS011;1994;48.640;8.894;2022-09-11T15:32:03;5.90;;;4.97;;
3959;SDS011;1994;48.640;8.894;2022-09-11T15:34:33;7.07;;;5.30;;
3959;SDS011;1994;48.640;8.894;2022-09-11T15:36:59;11.33;;;5.20;;
3959;SDS011;1994;48.640;8.894;2022-09-11T15:39:26;7.53;;;5.27;;
3959;SDS011;1994;48.640;8.894;2022-09-11T15:41:54;5.33;;;4.83;;
3959;SDS011;1994;48.640;8.894;2022-09-11T15:44:21;7.67;;;5.23;;
3959;SDS011;1994;48.640;8.894;2022-09-11T15:46:54;6.27;;;5.33;;
3959;SDS011;1994;48.640;8.894;2022-09-11T15:49:22;6.30;;;4.57;;
3959;SDS011;1994;48.640;8.894;2022-09-11T15:51:52;5.23;;;4.60;;
3959;SDS011;1994;48.640;8.894;2022-09-11T15:54:18;8.20;;;4.70;;
3959;SDS011;1994;48.640;8.894;2022-09-11T15:56:47;5.40;;;4.90;;
3959;SDS011;1994;48.640;8.894;2022-09-11T15:59:13;5.90;;;5.03;;
3959;SDS011;1994;48.640;8.894;2022-09-11T16:01:42;6.90;;;5.47;;
3959;SDS011;1994;48.640;8.894;2022-09-11T16:04:10;5.47;;;4.97;;
3959;SDS011;1994;48.640;8.894;2022-09-11T16:06:40;6.20;;;5.60;;
3959;SDS011;1994;48.640;8.894;2022-09-11T16:09:11;9.43;;;5.70;;
3959;SDS011;1994;48.640;8.894;2022-09-11T16:11:46;10.67;;;5.27;;
3959;SDS011;1994;48.640;8.894;2022-09-11T16:14:34;7.17;;;5.67;;
3959;SDS011;1994;48.640;8.894;2022-09-11T16:17:02;5.60;;;5.00;;
3959;SDS011;1994;48.640;8.894;2022-09-11T16:19:29;7.10;;;5.00;;
3959;SDS011;1994;48.640;8.894;2022-09-11T16:21:59;5.30;;;4.80;;
3959;SDS011;1994;48.640;8.894;2022-09-11T16:24:27;7.87;;;5.60;;
3959;SDS011;1994;48.640;8.894;2022-09-11T16:26:55;6.10;;;4.63;;
3959;SDS011;1994;48.640;8.894;2022-09-11T16:29:22;5.53;;;4.67;;
3959;SDS011;1994;48.640;8.894;2022-09-11T16:31:49;8.00;;;4.63;;
3959;SDS011;1994;48.640;8.894;2022-09-11T16:34:18;5.60;;;4.37;;
3959;SDS011;1994;48.640;8.894;2022-09-11T16:36:44;6.33;;;4.60;;
3959;SDS011;1994;48.640;8.894;2022-09-11T16:39:13;8.83;;;5.70;;
3959;SDS011;1994;48.640;8.894;2022-09-11T16:41:43;7.03;;;4.57;;
3959;SDS011;1994;48.640;8.894;2022-09-11T16:44:13;14.10;;;6.27;;
3959;SDS011;1994;48.640;8.894;2022-09-11T16:46:40;8.10;;;5.13;;
3959;SDS011;1994;48.640;8.894;2022-09-11T16:49:07;6.03;;;4.67;;
3959;SDS011;1994;48.640;8.894;2022-09-11T16:51:42;7.67;;;4.90;;
3959;SDS011;1994;48.640;8.894;2022-09-11T16:54:09;6.13;;;4.20;;
3959;SDS011;1994;48.640;8.894;2022-09-11T16:56:35;5.60;;;5.10;;
3959;SDS011;1994;48.640;8.894;2022-09-11T16:59:03;5.63;;;5.13;;
3959;SDS011;1994;48.640;8.894;2022-09-11T17:01:29;10.70;;;5.70;;
3959;SDS011;1994;48.640;8.894;2022-09-11T17:03:55;13.30;;;6.13;;
3959;SDS011;1994;48.640;8.894;2022-09-11T17:06:23;6.17;;;5.40;;
3959;SDS011;1994;48.640;8.894;2022-09-11T17:08:56;9.43;;;5.30;;
3959;SDS011;1994;48.640;8.894;2022-09-11T17:11:25;8.90;;;5.20;;
3959;SDS011;1994;48.640;8.894;2022-09-11T17:13:55;8.70;;;6.13;;
3959;SDS011;1994;48.640;8.894;2022-09-11T17:16:24;12.53;;;5.80;;
3959;SDS011;1994;48.640;8.894;2022-09-11T17:18:55;6.70;;;4.90;;
3959;SDS011;1994;48.640;8.894;2022-09-11T17:21:22;6.37;;;5.17;;
3959;SDS011;1994;48.640;8.894;2022-09-11T17:23:50;8.50;;;5.60;;
3959;SDS011;1994;48.640;8.894;2022-09-11T17:26:18;7.23;;;5.40;;
3959;SDS011;1994;48.640;8.894;2022-09-11T17:28:46;7.43;;;5.20;;
3959;SDS011;1994;48.640;8.894;2022-09-11T17:31:14;10.87;;;5.60;;
3959;SDS011;1994;48.640;8.894;2022-09-11T17:33:43;6.13;;;5.23;;
3959;SDS011;1994;48.640;8.894;2022-09-11T17:36:09;6.40;;;5.10;;
3959;SDS011;1994;48.640;8.894;2022-09-11T17:38:37;7.13;;;5.63;;
3959;SDS011;1994;48.640;8.894;2022-09-11T17:41:07;9.10;;;5.33;;
3959;SDS011;1994;48.640;8.894;2022-09-11T17:43:35;4.93;;;4.47;;
3959;SDS011;1994;48.640;8.894;2022-09-11T17:46:03;5.50;;;4.73;;
3959;SDS011;1994;48.640;8.894;2022-09-11T17:48:36;6.13;;;5.30;;
3959;SDS011;1994;48.640;8.894;2022-09-11T17:51:07;6.97;;;6.17;;
3959;SDS011;1994;48.640;8.894;2022-09-11T17:53:42;10.07;;;6.57;;
3959;SDS011;1994;48.640;8.894;2022-09-11T17:56:13;10.63;;;9.53;;
3959;SDS011;1994;48.640;8.894;2022-09-11T17:58:42;13.97;;;9.50;;
3959;SDS011;1994;48.640;8.894;2022-09-11T18:01:08;10.60;;;7.30;;
3959;SDS011;1994;48.640;8.894;2022-09-11T18:03:37;9.73;;;6.70;;
3959;SDS011;1994;48.640;8.894;2022-09-11T18:06:03;8.00;;;6.67;;
3959;SDS011;1994;48.640;8.894;2022-09-11T18:08:41;9.20;;;7.20;;
3959;SDS011;1994;48.640;8.894;2022-09-11T18:11:07;10.17;;;7.60;;
3959;SDS011;1994;48.640;8.894;2022-09-11T18:13:33;11.10;;;7.63;;
3959;SDS011;1994;48.640;8.894;2022-09-11T18:15:59;9.50;;;6.70;;